createdAt,value
2018-05-10T00:00:09.548Z,19.17
2018-05-10T00:02:37.022Z,19.60
2018-05-10T00:05:04.530Z,19.60
2018-05-10T00:07:32.031Z,19.07
2018-05-10T00:09:59.577Z,18.30
2018-05-10T00:12:27.052Z,17.67
2018-05-10T00:14:55.418Z,18.63
2018-05-10T00:17:22.892Z,16.10
2018-05-10T00:19:51.139Z,16.17
2018-05-10T00:22:18.653Z,16.67
2018-05-10T00:24:46.135Z,16.87
2018-05-10T00:27:13.637Z,16.67
2018-05-10T00:29:41.883Z,16.93
2018-05-10T00:32:09.387Z,17.10
2018-05-10T00:34:36.872Z,17.90
2018-05-10T00:37:04.384Z,19.33
2018-05-10T00:39:32.633Z,19.63
2018-05-10T00:42:00.128Z,19.63
2018-05-10T00:44:27.622Z,17.77
2018-05-10T00:46:55.126Z,18.83
2018-05-10T00:49:22.612Z,17.43
2018-05-10T00:51:50.112Z,16.33
2018-05-10T00:54:29.457Z,17.00
2018-05-10T00:56:56.963Z,18.33
2018-05-10T00:59:24.441Z,17.50
2018-05-10T01:01:51.942Z,17.20
2018-05-10T01:04:19.424Z,17.97
2018-05-10T01:06:47.688Z,17.80
2018-05-10T01:09:15.941Z,18.00
2018-05-10T01:11:43.409Z,18.13
2018-05-10T01:14:10.905Z,18.60
2018-05-10T01:16:38.381Z,18.07
2018-05-10T01:19:05.886Z,18.17
2018-05-10T01:21:33.361Z,18.20
2018-05-10T01:24:01.649Z,19.63
2018-05-10T01:26:29.135Z,19.37
2018-05-10T01:28:56.672Z,20.17
2018-05-10T01:31:24.143Z,19.47
2018-05-10T01:33:51.652Z,17.07
2018-05-10T01:36:19.117Z,18.57
2018-05-10T01:38:47.432Z,19.20
2018-05-10T01:41:14.902Z,18.43
2018-05-10T01:43:42.414Z,17.70
2018-05-10T01:46:10.665Z,17.57
2018-05-10T01:48:38.154Z,18.07
2018-05-10T01:51:06.416Z,19.73
2018-05-10T01:53:33.921Z,18.53
2018-05-10T01:56:01.422Z,18.57
2018-05-10T01:58:28.951Z,18.47
2018-05-10T02:00:56.427Z,17.43
2018-05-10T02:03:23.899Z,17.17
2018-05-10T02:05:51.412Z,17.80
2018-05-10T02:08:18.881Z,17.73
2018-05-10T02:10:46.370Z,18.00
2018-05-10T02:13:13.848Z,18.00
2018-05-10T02:15:42.112Z,18.70
2018-05-10T02:18:09.582Z,17.33
2018-05-10T02:20:37.898Z,17.87
2018-05-10T02:23:05.416Z,18.20
2018-05-10T02:25:33.690Z,17.23
2018-05-10T02:28:01.954Z,17.50
2018-05-10T02:30:29.435Z,16.20
2018-05-10T02:32:56.907Z,16.77
2018-05-10T02:35:24.404Z,19.60
2018-05-10T02:37:51.875Z,22.30
2018-05-10T02:42:53.433Z,25.53
2018-05-10T02:45:20.941Z,20.77
2018-05-10T02:47:48.425Z,20.10
2018-05-10T02:50:15.972Z,18.80
2018-05-10T02:52:43.442Z,18.93
2018-05-10T02:55:10.920Z,19.70
2018-05-10T02:57:38.424Z,20.40
2018-05-10T03:00:06.663Z,21.70
2018-05-10T03:02:34.163Z,21.63
2018-05-10T03:05:01.626Z,20.87
2018-05-10T03:07:29.127Z,21.30
2018-05-10T03:09:56.603Z,21.60
2018-05-10T03:12:24.093Z,22.03
2018-05-10T03:14:51.568Z,28.23
2018-05-10T03:17:19.061Z,23.37
2018-05-10T03:19:46.542Z,22.37
2018-05-10T03:22:14.802Z,24.10
2018-05-10T03:24:42.286Z,23.63
2018-05-10T03:27:10.550Z,26.10
2018-05-10T03:29:38.033Z,22.97
2018-05-10T03:32:05.517Z,26.77
2018-05-10T03:34:32.984Z,23.80
2018-05-10T03:37:00.492Z,24.37
2018-05-10T03:39:28.736Z,40.30
2018-05-10T03:41:56.318Z,42.40
2018-05-10T03:44:23.717Z,43.83
2018-05-10T03:46:51.222Z,41.13
2018-05-10T03:49:18.698Z,43.40
2018-05-10T03:51:46.956Z,42.67
2018-05-10T03:54:14.496Z,51.47
2018-05-10T03:56:41.972Z,44.67
2018-05-10T03:59:09.479Z,44.03
2018-05-10T04:01:36.942Z,45.20
2018-05-10T04:07:20.786Z,42.67
2018-05-10T04:10:00.127Z,43.77
2018-05-10T04:12:27.597Z,43.77
2018-05-10T04:14:55.096Z,45.37
2018-05-10T04:17:22.584Z,41.57
2018-05-10T04:19:50.845Z,41.30
2018-05-10T04:22:19.108Z,39.73
2018-05-10T04:24:46.616Z,44.87
2018-05-10T04:27:14.094Z,39.30
2018-05-10T04:29:42.354Z,36.80
2018-05-10T04:32:09.819Z,40.27
2018-05-10T04:34:37.319Z,35.53
2018-05-10T04:37:04.782Z,38.27
2018-05-10T04:39:33.053Z,33.83
2018-05-10T04:42:00.536Z,40.63
2018-05-10T04:44:28.057Z,34.93
2018-05-10T04:46:55.535Z,35.40
2018-05-10T04:49:23.775Z,35.37
2018-05-10T04:51:51.289Z,30.10
2018-05-10T04:54:18.759Z,32.13
2018-05-10T04:56:46.272Z,37.93
2018-05-10T04:59:13.750Z,32.90
2018-05-10T05:01:41.251Z,32.77
2018-05-10T05:04:08.715Z,32.37
2018-05-10T05:06:36.229Z,36.33
2018-05-10T05:09:04.482Z,38.33
2018-05-10T05:11:32.759Z,34.67
2018-05-10T05:14:00.240Z,32.53
2018-05-10T05:16:27.748Z,32.77
2018-05-10T05:18:55.258Z,34.40
2018-05-10T05:21:23.508Z,35.37
2018-05-10T05:23:50.984Z,35.07
2018-05-10T05:26:19.260Z,36.33
2018-05-10T05:28:47.489Z,34.30
2018-05-10T05:31:15.024Z,34.87
2018-05-10T05:33:42.511Z,33.83
2018-05-10T05:36:09.979Z,29.77
2018-05-10T05:38:37.494Z,31.13
2018-05-10T05:41:05.083Z,29.30
2018-05-10T05:43:32.513Z,29.70
2018-05-10T05:46:00.722Z,29.83
2018-05-10T05:48:28.242Z,30.60
2018-05-10T05:50:55.730Z,29.00
2018-05-10T05:53:23.255Z,27.40
2018-05-10T05:55:50.739Z,27.07
2018-05-10T05:58:18.242Z,27.60
2018-05-10T06:00:46.508Z,28.13
2018-05-10T06:03:14.761Z,25.47
2018-05-10T06:05:42.261Z,24.23
2018-05-10T06:08:10.521Z,23.87
2018-05-10T06:10:38.038Z,25.40
2018-05-10T06:13:05.558Z,26.93
2018-05-10T06:15:33.896Z,24.93
2018-05-10T06:18:02.099Z,25.37
2018-05-10T06:20:30.367Z,23.53
2018-05-10T06:22:58.637Z,25.47
2018-05-10T06:25:26.141Z,24.40
2018-05-10T06:27:53.607Z,22.63
2018-05-10T06:30:21.895Z,24.70
2018-05-10T06:32:49.388Z,24.47
2018-05-10T06:35:16.903Z,21.57
2018-05-10T06:37:44.383Z,24.73
2018-05-10T06:40:11.903Z,25.10
2018-05-10T06:42:39.372Z,22.27
2018-05-10T06:45:06.894Z,24.77
2018-05-10T06:47:35.164Z,23.80
2018-05-10T06:50:03.430Z,25.93
2018-05-10T06:52:30.901Z,25.50
2018-05-10T06:54:59.180Z,26.30
2018-05-10T06:57:27.427Z,27.50
2018-05-10T06:59:54.934Z,25.40
2018-05-10T07:02:22.422Z,27.33
2018-05-10T07:04:49.935Z,29.20
2018-05-10T07:07:17.418Z,28.93
2018-05-10T07:09:45.036Z,31.93
2018-05-10T07:12:12.441Z,34.37
2018-05-10T07:14:39.952Z,31.40
2018-05-10T07:17:08.242Z,31.37
2018-05-10T07:19:35.722Z,30.53
2018-05-10T07:22:03.230Z,30.60
2018-05-10T07:24:30.736Z,30.37
2018-05-10T07:26:58.269Z,25.00
2018-05-10T07:29:26.530Z,27.63
2018-05-10T07:31:54.162Z,25.83
2018-05-10T07:34:21.668Z,22.97
2018-05-10T07:36:49.972Z,22.83
2018-05-10T07:39:17.452Z,23.50
2018-05-10T07:41:44.948Z,21.93
2018-05-10T07:44:13.230Z,20.07
2018-05-10T07:46:41.482Z,22.00
2018-05-10T07:49:09.002Z,19.07
2018-05-10T07:51:36.490Z,22.40
2018-05-10T07:54:03.995Z,23.20
2018-05-10T07:56:31.462Z,26.30
2018-05-10T07:58:58.983Z,22.47
2018-05-10T08:01:26.489Z,25.80
2018-05-10T08:03:54.002Z,24.83
2018-05-10T08:06:22.263Z,26.90
2018-05-10T08:08:49.804Z,28.77
2018-05-10T08:11:17.287Z,29.13
2018-05-10T08:13:44.809Z,31.53
2018-05-10T08:16:12.292Z,35.73
2018-05-10T08:18:39.896Z,39.40
2018-05-10T08:21:07.405Z,47.17
2018-05-10T08:23:46.719Z,43.80
2018-05-10T08:26:14.209Z,36.97
2018-05-10T08:28:41.694Z,59.17
2018-05-10T08:31:09.981Z,46.63
2018-05-10T08:33:37.481Z,49.17
2018-05-10T08:36:04.979Z,65.13
2018-05-10T08:38:33.256Z,46.90
2018-05-10T08:41:01.520Z,68.40
2018-05-10T08:43:29.765Z,67.63
2018-05-10T08:45:57.288Z,55.13
2018-05-10T08:48:24.762Z,69.27
2018-05-10T08:50:52.326Z,94.20
2018-05-10T08:53:19.814Z,86.83
2018-05-10T08:55:47.350Z,92.43
2018-05-10T08:58:14.834Z,81.90
2018-05-10T09:00:42.448Z,87.43
2018-05-10T09:03:09.949Z,82.73
2018-05-10T09:05:37.473Z,75.03
2018-05-10T09:08:04.968Z,65.27
2018-05-10T09:10:32.516Z,57.20
2018-05-10T09:13:00.014Z,61.50
2018-05-10T09:15:28.277Z,44.83
2018-05-10T09:17:56.569Z,39.77
2018-05-10T09:20:24.824Z,30.30
2018-05-10T09:22:52.395Z,30.27
2018-05-10T09:25:19.883Z,29.10
2018-05-10T09:27:47.429Z,29.10
2018-05-10T09:30:14.899Z,25.33
2018-05-10T09:32:42.445Z,22.77
2018-05-10T09:35:09.992Z,18.27
2018-05-10T09:37:38.269Z,16.30
2018-05-10T09:40:07.139Z,16.43
2018-05-10T09:42:34.657Z,16.43
2018-05-10T09:45:02.221Z,15.23
2018-05-10T09:47:29.731Z,10.80
2018-05-10T09:49:57.257Z,8.87
2018-05-10T09:52:24.808Z,12.17
2018-05-10T09:54:52.287Z,12.03
2018-05-10T09:57:19.826Z,8.17
2018-05-10T09:59:50.250Z,9.13
2018-05-10T10:02:18.573Z,7.20
2018-05-10T10:04:46.589Z,8.23
2018-05-10T10:07:14.067Z,8.87
2018-05-10T10:09:41.598Z,8.37
2018-05-10T10:12:09.174Z,7.03
2018-05-10T10:14:36.688Z,6.30
2018-05-10T10:17:04.198Z,5.00
2018-05-10T10:19:31.750Z,5.23
2018-05-10T10:21:59.226Z,6.23
2018-05-10T10:24:26.744Z,4.60
2018-05-10T10:26:54.215Z,5.80
2018-05-10T10:29:21.724Z,5.77
2018-05-10T10:31:49.971Z,7.97
2018-05-10T10:34:18.800Z,4.03
2018-05-10T10:36:46.377Z,6.63
2018-05-10T10:39:13.906Z,10.50
2018-05-10T10:41:42.134Z,8.83
2018-05-10T10:44:09.657Z,9.73
2018-05-10T10:46:37.154Z,6.30
2018-05-10T10:49:04.642Z,5.13
2018-05-10T10:51:32.140Z,4.03
2018-05-10T10:53:59.636Z,5.00
2018-05-10T10:56:27.136Z,5.17
2018-05-10T10:58:55.366Z,6.23
2018-05-10T11:01:22.879Z,4.20
2018-05-10T11:03:50.352Z,5.70
2018-05-10T11:06:17.886Z,5.73
2018-05-10T11:08:45.472Z,4.50
2018-05-10T11:11:12.985Z,5.27
2018-05-10T11:13:41.253Z,3.77
2018-05-10T11:16:08.784Z,4.77
2018-05-10T11:18:36.283Z,4.60
2018-05-10T11:21:04.567Z,5.37
2018-05-10T11:23:32.815Z,5.00
2018-05-10T11:26:00.305Z,5.87
2018-05-10T11:28:27.812Z,3.80
2018-05-10T11:30:55.345Z,7.00
2018-05-10T11:33:22.913Z,5.33
2018-05-10T11:35:50.336Z,3.90
2018-05-10T11:38:18.599Z,6.47
2018-05-10T11:40:47.057Z,5.13
2018-05-10T11:43:14.559Z,5.23
2018-05-10T11:45:42.039Z,7.87
2018-05-10T11:48:09.614Z,6.37
2018-05-10T11:50:37.105Z,6.80
2018-05-10T11:53:04.625Z,6.07
2018-05-10T11:55:32.094Z,6.60
2018-05-10T11:57:59.598Z,4.73
2018-05-10T12:00:27.833Z,5.17
2018-05-10T12:02:55.356Z,5.40
2018-05-10T12:05:22.832Z,5.37
2018-05-10T12:07:50.447Z,5.10
2018-05-10T12:10:18.691Z,5.13
2018-05-10T12:12:46.240Z,4.43
2018-05-10T12:15:13.761Z,6.10
2018-05-10T12:17:41.264Z,4.97
2018-05-10T12:20:08.745Z,5.33
2018-05-10T12:22:37.024Z,5.73
2018-05-10T12:25:05.287Z,6.10
2018-05-10T12:27:32.808Z,4.67
2018-05-10T12:30:00.308Z,4.30
2018-05-10T12:32:27.813Z,5.97
2018-05-10T12:34:55.302Z,3.97
2018-05-10T12:37:22.792Z,4.27
2018-05-10T12:39:51.064Z,8.83
2018-05-10T12:42:18.545Z,8.47
2018-05-10T12:44:46.046Z,4.97
2018-05-10T12:47:13.553Z,9.20
2018-05-10T12:49:41.056Z,5.83
2018-05-10T12:52:08.528Z,5.30
2018-05-10T12:54:36.077Z,3.33
2018-05-10T12:57:03.555Z,3.97
2018-05-10T12:59:31.067Z,3.10
2018-05-10T13:01:58.595Z,3.87
2018-05-10T13:04:26.867Z,4.67
2018-05-10T13:06:55.204Z,4.30
2018-05-10T13:09:22.627Z,3.23
2018-05-10T13:11:50.125Z,4.83
2018-05-10T13:14:17.648Z,5.47
2018-05-10T13:16:45.127Z,3.80
2018-05-10T13:19:12.651Z,6.23
2018-05-10T13:21:40.162Z,3.70
2018-05-10T13:24:07.646Z,4.60
2018-05-10T13:26:35.130Z,4.63
2018-05-10T13:29:02.682Z,6.17
2018-05-10T13:31:30.175Z,5.70
2018-05-10T13:33:57.669Z,6.07
2018-05-10T13:36:25.169Z,2.73
2018-05-10T13:38:52.673Z,3.53
2018-05-10T13:41:20.216Z,3.27
2018-05-10T13:43:47.727Z,2.80
2018-05-10T13:46:15.260Z,4.47
2018-05-10T13:48:42.730Z,2.17
2018-05-10T13:51:11.002Z,3.73
2018-05-10T13:53:38.463Z,6.23
2018-05-10T13:56:06.746Z,5.83
2018-05-10T13:58:34.985Z,4.07
2018-05-10T14:01:02.528Z,5.47
2018-05-10T14:03:30.000Z,4.77
2018-05-10T14:05:57.514Z,3.40
2018-05-10T14:08:25.094Z,4.10
2018-05-10T14:10:52.654Z,3.47
2018-05-10T14:13:27.334Z,3.53
2018-05-10T14:15:55.450Z,6.73
2018-05-10T14:18:22.944Z,3.83
2018-05-10T14:20:50.875Z,7.10
2018-05-10T14:23:20.069Z,4.33
2018-05-10T14:25:47.550Z,5.27
2018-05-10T14:28:15.064Z,3.27
2018-05-10T14:30:43.293Z,4.23
2018-05-10T14:33:10.823Z,4.67
2018-05-10T14:35:38.293Z,5.40
2018-05-10T14:38:05.809Z,4.73
2018-05-10T14:40:34.062Z,4.40
2018-05-10T14:43:01.571Z,4.67
2018-05-10T14:45:29.038Z,4.20
2018-05-10T14:47:56.535Z,3.57
2018-05-10T14:50:24.021Z,3.10
2018-05-10T14:52:51.507Z,3.37
2018-05-10T14:55:19.045Z,3.13
2018-05-10T14:57:46.518Z,3.57
2018-05-10T15:00:14.057Z,3.63
2018-05-10T15:02:42.302Z,2.77
2018-05-10T15:05:09.809Z,4.20
2018-05-10T15:07:37.296Z,5.03
2018-05-10T15:10:04.797Z,4.83
2018-05-10T15:12:33.062Z,3.60
2018-05-10T15:15:01.339Z,4.90
2018-05-10T15:17:29.580Z,5.07
2018-05-10T15:19:57.089Z,4.10
2018-05-10T15:22:25.334Z,3.67
2018-05-10T15:24:52.834Z,7.27
2018-05-10T15:27:20.318Z,4.53
2018-05-10T15:29:47.818Z,5.93
2018-05-10T15:32:15.304Z,6.90
2018-05-10T15:34:42.832Z,4.70
2018-05-10T15:37:10.324Z,8.90
2018-05-10T15:39:37.802Z,7.60
2018-05-10T15:42:05.323Z,7.97
2018-05-10T15:44:33.569Z,7.97
2018-05-10T15:47:01.073Z,5.97
2018-05-10T15:49:28.634Z,6.07
2018-05-10T15:51:56.106Z,4.13
2018-05-10T15:54:23.567Z,4.00
2018-05-10T15:56:51.067Z,4.10
2018-05-10T15:59:18.651Z,4.13
2018-05-10T16:01:46.100Z,3.67
2018-05-10T16:04:13.560Z,6.37
2018-05-10T16:06:41.877Z,5.60
2018-05-10T16:09:09.318Z,9.47
2018-05-10T16:11:36.825Z,5.53
2018-05-10T16:14:04.301Z,4.50
2018-05-10T16:16:32.597Z,5.67
2018-05-10T16:19:00.061Z,5.73
2018-05-10T16:21:27.528Z,8.17
2018-05-10T16:23:55.041Z,7.57
2018-05-10T16:26:22.556Z,4.50
2018-05-10T16:28:50.040Z,3.07
2018-05-10T16:31:17.522Z,4.53
2018-05-10T16:33:45.783Z,7.00
2018-05-10T16:36:13.251Z,3.93
2018-05-10T16:38:40.763Z,2.47
2018-05-10T16:41:08.244Z,3.93
2018-05-10T16:43:35.774Z,4.17
2018-05-10T16:46:03.260Z,4.03
2018-05-10T16:48:31.524Z,2.90
2018-05-10T16:50:59.013Z,3.67
2018-05-10T16:53:26.609Z,2.83
2018-05-10T16:55:53.996Z,5.93
2018-05-10T16:58:21.497Z,4.67
2018-05-10T17:00:49.736Z,3.57
2018-05-10T17:03:17.250Z,7.37
2018-05-10T17:05:45.502Z,4.63
2018-05-10T17:08:13.039Z,6.50
2018-05-10T17:10:40.580Z,4.90
2018-05-10T17:13:08.047Z,6.23
2018-05-10T17:15:35.544Z,5.33
2018-05-10T17:18:03.805Z,5.87
2018-05-10T17:20:31.392Z,7.33
2018-05-10T17:22:58.868Z,5.13
2018-05-10T17:25:26.361Z,7.00
2018-05-10T17:27:54.093Z,4.67
2018-05-10T17:30:21.609Z,7.27
2018-05-10T17:32:49.107Z,6.63
2018-05-10T17:35:16.628Z,5.70
2018-05-10T17:37:44.137Z,5.40
2018-05-10T17:40:11.635Z,8.07
2018-05-10T17:42:39.127Z,6.93
2018-05-10T17:45:06.645Z,4.57
2018-05-10T17:47:34.115Z,6.73
2018-05-10T17:50:01.600Z,4.90
2018-05-10T17:52:29.111Z,4.60
2018-05-10T17:54:56.601Z,5.17
2018-05-10T17:57:24.867Z,12.10
2018-05-10T17:59:52.349Z,6.20
2018-05-10T18:02:19.867Z,9.47
2018-05-10T18:04:47.342Z,5.47
2018-05-10T18:07:15.654Z,6.43
2018-05-10T18:09:43.896Z,5.97
2018-05-10T18:12:12.182Z,3.50
2018-05-10T18:14:40.448Z,7.60
2018-05-10T18:17:07.980Z,6.97
2018-05-10T18:19:35.444Z,6.27
2018-05-10T18:22:02.962Z,6.67
2018-05-10T18:24:30.455Z,6.77
2018-05-10T18:26:57.973Z,4.77
2018-05-10T18:29:25.464Z,4.00
2018-05-10T18:31:52.980Z,5.77
2018-05-10T18:34:20.515Z,7.17
2018-05-10T18:36:48.764Z,4.37
2018-05-10T18:39:16.301Z,5.00
2018-05-10T18:41:43.812Z,4.80
2018-05-10T18:44:12.100Z,6.63
2018-05-10T18:46:39.586Z,4.03
2018-05-10T18:49:07.893Z,7.53
2018-05-10T18:51:35.366Z,9.10
2018-05-10T18:54:02.867Z,10.30
2018-05-10T18:56:30.354Z,6.00
2018-05-10T18:58:57.872Z,8.17
2018-05-10T19:01:25.382Z,8.63
2018-05-10T19:03:52.904Z,8.20
2018-05-10T19:06:20.392Z,9.20
2018-05-10T19:08:47.932Z,15.70
2018-05-10T19:11:15.432Z,12.93
2018-05-10T19:13:42.921Z,13.80
2018-05-10T19:16:10.431Z,12.50
2018-05-10T19:18:37.953Z,5.47
2018-05-10T19:21:05.433Z,5.67
2018-05-10T19:23:32.909Z,4.90
2018-05-10T19:26:00.406Z,5.80
2018-05-10T19:28:27.875Z,4.47
2018-05-10T19:30:55.399Z,8.80
2018-05-10T19:33:22.862Z,5.93
2018-05-10T19:35:51.172Z,6.97
2018-05-10T19:38:18.713Z,3.50
2018-05-10T19:40:46.967Z,4.40
2018-05-10T19:43:14.446Z,3.87
2018-05-10T19:45:42.880Z,5.03
2018-05-10T19:48:10.457Z,2.20
2018-05-10T19:50:37.949Z,3.33
2018-05-10T19:53:05.541Z,2.53
2018-05-10T19:55:33.034Z,2.53
2018-05-10T19:58:00.548Z,3.20
2018-05-10T20:00:28.012Z,2.73
2018-05-10T20:02:55.535Z,2.00
2018-05-10T20:05:23.769Z,4.97
2018-05-10T20:07:51.280Z,3.20
2018-05-10T20:10:18.764Z,2.20
2018-05-10T20:12:46.263Z,3.53
2018-05-10T20:15:13.731Z,3.77
2018-05-10T20:17:42.009Z,1.77
2018-05-10T20:20:10.253Z,2.50
2018-05-10T20:22:37.782Z,3.10
2018-05-10T20:25:05.258Z,4.10
2018-05-10T20:27:32.769Z,2.30
2018-05-10T20:30:01.049Z,5.03
2018-05-10T20:32:28.576Z,1.87
2018-05-10T20:34:56.036Z,3.33
2018-05-10T20:37:23.529Z,3.10
2018-05-10T20:39:51.031Z,3.30
2018-05-10T20:42:18.512Z,2.67
2018-05-10T20:44:46.069Z,4.10
2018-05-10T20:47:13.534Z,4.90
2018-05-10T20:49:41.819Z,3.23
2018-05-10T20:52:10.064Z,3.13
2018-05-10T20:54:38.371Z,3.17
2018-05-10T20:57:06.617Z,1.70
2018-05-10T20:59:34.144Z,3.93
2018-05-10T21:02:01.603Z,1.90
2018-05-10T21:04:29.147Z,3.97
2018-05-10T21:06:56.634Z,1.77
2018-05-10T21:09:24.127Z,1.70
2018-05-10T21:11:52.377Z,2.77
2018-05-10T21:14:19.905Z,2.27
2018-05-10T21:16:47.387Z,2.30
2018-05-10T21:19:14.866Z,3.30
2018-05-10T21:21:42.400Z,3.90
2018-05-10T21:24:09.860Z,3.23
2018-05-10T21:26:37.358Z,4.23
2018-05-10T21:29:04.820Z,4.57
2018-05-10T21:31:33.107Z,3.47
2018-05-10T21:34:00.602Z,3.33
2018-05-10T21:36:28.117Z,2.43
2018-05-10T21:38:56.356Z,3.00
2018-05-10T21:41:23.849Z,2.43
2018-05-10T21:43:51.324Z,4.57
2018-05-10T21:46:18.857Z,2.57
2018-05-10T21:48:47.110Z,3.53
2018-05-10T21:51:14.610Z,2.93
2018-05-10T21:53:42.082Z,2.80
2018-05-10T21:56:09.623Z,4.00
2018-05-10T21:58:37.104Z,4.03
2018-05-10T22:01:04.663Z,4.00
2018-05-10T22:03:32.193Z,2.63
2018-05-10T22:06:00.446Z,2.47
2018-05-10T22:08:27.952Z,2.10
2018-05-10T22:10:55.414Z,4.23
2018-05-10T22:13:22.917Z,1.70
2018-05-10T22:15:50.394Z,4.67
2018-05-10T22:18:18.697Z,2.87
2018-05-10T22:20:46.176Z,3.40
2018-05-10T22:23:13.766Z,2.37
2018-05-10T22:25:41.256Z,1.80
2018-05-10T22:28:08.756Z,3.60
2018-05-10T22:30:36.223Z,2.13
2018-05-10T22:33:03.722Z,3.00
2018-05-10T22:35:32.049Z,3.43
2018-05-10T22:37:59.453Z,3.87
2018-05-10T22:40:27.714Z,3.87
2018-05-10T22:42:55.982Z,3.03
2018-05-10T22:45:23.445Z,5.63
2018-05-10T22:47:50.920Z,5.03
2018-05-10T22:50:19.223Z,3.50
2018-05-10T22:52:46.703Z,4.57
2018-05-10T22:55:14.202Z,3.50
2018-05-10T22:57:42.457Z,2.80
2018-05-10T23:00:09.954Z,4.10
2018-05-10T23:02:37.430Z,4.37
2018-05-10T23:05:04.943Z,4.17
2018-05-10T23:07:32.428Z,4.93
2018-05-10T23:09:59.933Z,3.63
2018-05-10T23:12:27.423Z,3.43
2018-05-10T23:14:55.715Z,2.90
2018-05-10T23:17:23.970Z,2.77
2018-05-10T23:19:51.494Z,2.90
2018-05-10T23:22:19.741Z,3.00
2018-05-10T23:24:47.360Z,2.43
2018-05-10T23:27:14.842Z,3.73
2018-05-10T23:29:43.112Z,2.47
2018-05-10T23:32:10.596Z,2.67
2018-05-10T23:34:38.070Z,3.80
2018-05-10T23:37:05.619Z,3.73
2018-05-10T23:39:33.104Z,3.60
2018-05-10T23:42:00.604Z,6.20
2018-05-10T23:44:28.833Z,3.03
2018-05-10T23:46:56.354Z,3.13
2018-05-10T23:49:23.822Z,2.87
2018-05-10T23:51:51.332Z,2.60
2018-05-10T23:54:18.807Z,4.60
2018-05-10T23:56:47.069Z,7.57
2018-05-10T23:59:14.589Z,3.67
